Wednesday, October 01, 2014
12:22 UTC
  |  Log In   |  Register Free
Airport Search:

Seattle-Tacoma International Airport
(KSEA)

FAA data valid effective September 18, 2014 - November 13, 2014 (unless otherwise noted).

 
 
 
 
 
 
 
 
 
 
 
 
 
 

Current Aviation Weather for Seattle-Tacoma International Airport (KSEA)

The most recent METAR observation for KSEA was updated at: 1218
METAR Summary (Translated METAR)
KSEA
011153Z 14004KT 10SM BKN029 BKN080 11/09 A3020 RMK AO2 SLP233 T01110094 10150 20111 51005
KRNT
011153Z AUTO 00000KT 9SM OVC035 12/12 A3019 RMK AO2 SLP229 T01220117 10150 20122 51006
(4.6 nm NE from KSEA)
KBFI
011153Z 00000KT 10SM SCT032 13/10 A3020 RMK AO2 SLP224 7//// T01330100 10161 20128 51005
(4.9 nm NE from KSEA)
TAF Summary (Translated TAF)
KSEA
011014Z 0110/0212 VRB03KT P6SM SCT025 BKN050 TEMPO 0114/0118 BKN025 BKN050 FM011800 21008KT P6SM BKN028 BKN200 FM012000 25008KT P6SM SCT035 BKN200 FM020100 32006KT P6SM FEW050 BKN200 FM020300 VRB03KT P6SM BKN200
KBFI
(4.9 nm NE from KSEA)
011140Z 0112/0212 VRB03KT P6SM SCT030 SCT050 BKN200 TEMPO 0114/0118 BKN030 OVC050 FM011800 20005KT P6SM SCT050 BKN200 FM012000 28005KT P6SM SCT070 BKN200 FM020000 VRB03KT P6SM BKN200
  Airport Weather Conditions for KSEA

 Current Weather at SEA
52° F
Mostly Cloudy
Southeast winds at 4.6 mph
SEA NOAA Radar

Pressure: 30.20 in
Humidity: 89%
Wind: Southeast at 4.6 MPH (4 KT)
Dew Point: 48.9°F
Visibility: 10.00 mi


Airport Weather Forecast for KSEA

Translated METAR and TAF for KSEA
Translated METAR for KSEA (1216 UTC 01 October 2014)
found at http://aviationweather.gov/adds/metars/
 
METAR text: KSEA 011153Z 14004KT 10SM BKN029 BKN080 11/09 A3020 RMK AO2 SLP233 T01110094 10150 20111 51005
Conditions at: KSEA (SEATTLE/METRO , WA, US) observed 1153 UTC 01 October 2014
Temperature: 11.1°C (52°F)
Dewpoint: 9.4°C (49°F) [RH = 89%]
Pressure (altimeter): 30.20 inches Hg (1022.8 mb)
[Sea-level pressure: 1023.3 mb]
Winds: from the SE (140 degrees) at 5 MPH (4 knots; 2.1 m/s)
Visibility: 10 or more miles (16+ km)
Ceiling: 2900 feet AGL
Clouds: broken clouds at 2900 feet AGL
broken clouds at 8000 feet AGL
Weather: no significant weather observed at this time
Translated TAF for KSEA
Forecast for: KSEA (SEATTLE/METRO , WA, US)
TAF Text: KSEA 011140Z 0112/0218 VRB03KT P6SM SCT025 SCT050 BKN200
Forecast period: 1200 to 1800 UTC 01 October 2014
Forecast type: FROM: standard forecast or significant change
Winds: variable direction winds at 3 MPH (3 knots; 1.6 m/s)
Visibility: 6 or more miles (10+ km)
Ceiling: 20000 feet AGL
Clouds: scattered clouds at 2500 feet AGL
scattered clouds at 5000 feet AGL
broken clouds at 20000 feet AGL
Weather: no significant weather forecast for this period
TAF Text: TEMPO 0114/0118 BKN025 OVC050
Forecast period: 1400 to 1800 UTC 01 October 2014
Forecast type: TEMPORARY: The following changes expected for less than half the time period
Ceiling: 2500 feet AGL
Clouds: broken clouds at 2500 feet AGL
overcast cloud deck at 5000 feet AGL
Weather: no significant weather forecast for this period
TAF Text: FM011800 23006KT P6SM SCT035 SCT050 BKN200
Forecast period: 1800 to 2000 UTC 01 October 2014
Forecast type: FROM: standard forecast or significant change
Winds: from the SW (230 degrees) at 7 MPH (6 knots; 3.1 m/s)
Visibility: 6 or more miles (10+ km)
Ceiling: 20000 feet AGL
Clouds: scattered clouds at 3500 feet AGL
scattered clouds at 5000 feet AGL
broken clouds at 20000 feet AGL
Weather: no significant weather forecast for this period
TAF Text: FM012000 25008KT P6SM SCT070 BKN200
Forecast period: 2000 UTC 01 October 2014 to 0100 UTC 02 October 2014
Forecast type: FROM: standard forecast or significant change
Winds: from the WSW (250 degrees) at 9 MPH (8 knots; 4.2 m/s)
Visibility: 6 or more miles (10+ km)
Ceiling: 20000 feet AGL
Clouds: scattered clouds at 7000 feet AGL
broken clouds at 20000 feet AGL
Weather: no significant weather forecast for this period
TAF Text: FM020100 32005KT P6SM BKN200
Forecast period: 0100 to 0600 UTC 02 October 2014
Forecast type: FROM: standard forecast or significant change
Winds: from the NW (320 degrees) at 6 MPH (5 knots; 2.6 m/s)
Visibility: 6 or more miles (10+ km)
Ceiling: 20000 feet AGL
Clouds: broken clouds at 20000 feet AGL
Weather: no significant weather forecast for this period
TAF Text: FM020600 04005KT P6SM BKN200
Forecast period: 0600 to 1800 UTC 02 October 2014
Forecast type: FROM: standard forecast or significant change
Winds: from the NE (40 degrees) at 6 MPH (5 knots; 2.6 m/s)
Visibility: 6 or more miles (10+ km)
Ceiling: 20000 feet AGL
Clouds: broken clouds at 20000 feet AGL
Weather: no significant weather forecast for this period

Find All Airport Services Find A Hotel Find A Rental Car Find A Golf Course Find A Restaurant $100 Hamburger



FBO's on the Field
FBO Company Facility Photos Services Transportation Aviation Fuel Prices: Prices include tax
Catering Weather Repair Courtesy Rental Type 100LL JetA JetA+ MOGAS 8087
 
Aircraft Service Intl.

This FBO has not yet been rated
FS:Avfuel
Last Updated: Aug-28
Login to update fuel prices
SS:
Contact Aircraft Service Intl.More FBO Information
 
Add another FBO Facility Photos Catering Weather Repair Courtesy Rental Type 100LL JetA JetA+ MOGAS 8087
Services Transportation Aviation Fuel Prices: Prices include tax


model-print
model-print
model-print
model-print